Time;durP1;ratioP1;P1;durP2;ratioP2;P2;SDS_P1;SDS_P2;PMS_P1;PMS_P2;Temp;Humidity;BMP_temperature;BMP_pressure;BME280_temperature;BME280_humidity;BME280_pressure;Samples;Min_cycle;Max_cycle;Signal;HPM_P1;HPM_P2
2022/01/28 00:02:31;;;;;;;;;;;;;;;13.31;50.04;100639.84;4980133;28;98063;-56
2022/01/28 00:04:56;;;;;;;;;;;;;;;13.32;50.12;100630.63;4980791;27;100156;-57
2022/01/28 00:07:22;;;;;;;;;;;;;;;13.31;50.07;100631.72;4984265;28;99164;-57
2022/01/28 00:09:48;;;;;;;;;;;;;;;13.33;50.26;100636.88;4983894;28;97940;-56
2022/01/28 00:12:14;;;;;;;;;;;;;;;13.33;50.13;100626.84;4982616;28;116694;-56
2022/01/28 00:15:30;;;;;;;;;;;;;;;13.34;50.09;100622.25;4983496;27;99394;-64
2022/01/28 00:38:57;;;;;;;;;;;;;;;13.33;50.08;100656.63;4978794;28;112218;-57
2022/01/28 00:41:23;;;;;;;;;;;;;;;13.33;49.78;100651.22;5013528;27;109507;-56
2022/01/28 00:43:49;;;;;;;;;;;;;;;13.33;49.70;100667.47;4984067;27;116982;-63
2022/01/28 00:46:15;;;;;;;;;;;;;;;13.33;49.68;100664.75;4980857;27;123827;-56
2022/01/28 00:48:41;;;;;;;;;;;;;;;13.33;49.66;100688.31;4980483;28;127081;-65
2022/01/28 00:51:07;;;;;;;;;;;;;;;13.33;49.79;100666.66;4982395;27;126900;-64
2022/01/28 00:53:33;;;;;;;;;;;;;;;13.34;49.67;100692.63;4983103;28;118427;-64
2022/01/28 00:55:58;;;;;;;;;;;;;;;13.34;49.65;100679.91;4980655;28;118563;-64
2022/01/28 00:58:24;;;;;;;;;;;;;;;13.34;49.60;100685.31;4983214;28;98483;-63
2022/01/28 01:00:51;;;;;;;;;;;;;;;13.34;49.82;100685.31;4980420;27;127798;-64
2022/01/28 01:03:17;;;;;;;;;;;;;;;13.33;49.70;100681.00;4982313;28;105746;-64
2022/01/28 01:05:42;;;;;;;;;;;;;;;13.35;49.49;100696.94;4979432;27;129267;-63
2022/01/28 01:08:08;;;;;;;;;;;;;;;13.33;49.43;100699.13;4982782;28;127555;-57
2022/01/28 01:10:35;;;;;;;;;;;;;;;13.33;49.45;100697.25;4982114;27;126804;-60
2022/01/28 01:13:01;;;;;;;;;;;;;;;13.33;49.44;100699.13;4982638;28;97731;-57
2022/01/28 01:15:32;;;;;;;;;;;;;;;13.31;49.64;100707.53;4981993;27;100038;-63
2022/01/28 01:23:21;;;;;;;;;;;;;;;13.29;49.73;100712.41;4979793;27;97936;-57
2022/01/28 01:25:55;;;;;;;;;;;;;;;13.28;49.58;100727.03;4982622;27;98286;-56
2022/01/28 01:28:23;;;;;;;;;;;;;;;13.27;49.58;100725.41;4981564;28;98348;-64
2022/01/28 01:30:49;;;;;;;;;;;;;;;13.27;49.65;100730.81;4982427;27;98180;-63
2022/01/28 01:33:18;;;;;;;;;;;;;;;13.26;49.47;100740.84;4983276;28;97847;-56
2022/01/28 01:35:44;;;;;;;;;;;;;;;13.26;49.69;100746.25;4981825;27;98927;-64
2022/01/28 01:38:10;;;;;;;;;;;;;;;13.26;49.55;100737.34;4982024;28;128703;-64
2022/01/28 01:40:50;;;;;;;;;;;;;;;13.26;49.58;100745.47;4981670;27;98354;-64
2022/01/28 01:54:21;;;;;;;;;;;;;;;13.26;49.62;100735.44;4981747;28;98057;-56
2022/01/28 01:56:47;;;;;;;;;;;;;;;13.27;49.60;100741.66;4981056;27;126882;-56
2022/01/28 01:59:13;;;;;;;;;;;;;;;13.27;49.59;100752.47;4982083;28;107036;-63
2022/01/28 02:01:39;;;;;;;;;;;;;;;13.27;49.42;100755.19;4979241;28;128330;-64
2022/01/28 02:04:06;;;;;;;;;;;;;;;13.26;49.67;100750.88;4981804;27;117573;-57
2022/01/28 02:06:32;;;;;;;;;;;;;;;13.27;49.55;100760.59;4981531;27;98865;-57
2022/01/28 02:08:59;;;;;;;;;;;;;;;13.26;49.45;100759.00;4964470;28;98354;-63
2022/01/28 02:11:25;;;;;;;;;;;;;;;13.26;49.67;100770.63;4980590;27;98800;-64
2022/01/28 02:13:52;;;;;;;;;;;;;;;13.24;49.38;100767.41;4980715;27;116674;-61
2022/01/28 02:16:18;;;;;;;;;;;;;;;13.25;49.44;100768.22;4981715;27;97763;-56
2022/01/28 02:18:44;;;;;;;;;;;;;;;13.24;49.40;100770.09;4982132;27;98139;-57
2022/01/28 02:21:13;;;;;;;;;;;;;;;13.24;49.42;100775.53;4982397;28;97819;-64
2022/01/28 02:23:40;;;;;;;;;;;;;;;13.23;49.34;100768.47;4982203;27;98049;-57
2022/01/28 02:26:07;;;;;;;;;;;;;;;13.22;49.42;100766.03;4981562;27;99184;-64
2022/01/28 02:28:37;;;;;;;;;;;;;;;13.22;49.37;100764.13;4981748;27;99037;-56
2022/01/28 02:31:04;;;;;;;;;;;;;;;13.21;49.58;100776.03;4965159;28;98282;-64
2022/01/28 02:33:30;;;;;;;;;;;;;;;13.21;49.17;100786.06;4981591;27;97799;-64
2022/01/28 02:36:02;;;;;;;;;;;;;;;13.21;49.12;100781.44;4980989;27;99010;-57
2022/01/28 02:38:28;;;;;;;;;;;;;;;13.21;49.21;100796.88;4981844;28;99025;-56
2022/01/28 02:40:59;;;;;;;;;;;;;;;13.21;49.28;100778.75;4980548;27;129045;-58
2022/01/28 02:46:01;;;;;;;;;;;;;;;13.22;49.20;100793.91;4981551;27;99372;-64
2022/01/28 02:48:29;;;;;;;;;;;;;;;13.23;49.26;100784.72;4982340;27;98489;-56
2022/01/28 02:53:27;;;;;;;;;;;;;;;13.25;49.33;100787.16;4978973;27;97856;-64
2022/01/28 02:56:00;;;;;;;;;;;;;;;13.25;49.36;100798.78;4981413;28;99032;-64
2022/01/28 02:58:27;;;;;;;;;;;;;;;13.26;49.07;100799.59;4962478;28;98339;-56
2022/01/28 03:00:57;;;;;;;;;;;;;;;13.27;49.11;100812.03;4968243;28;98638;-56
2022/01/28 03:03:23;;;;;;;;;;;;;;;13.27;49.21;100806.63;4979974;28;97832;-56
2022/01/28 03:05:50;;;;;;;;;;;;;;;13.27;49.21;100807.44;4980805;27;99210;-56
2022/01/28 03:08:16;;;;;;;;;;;;;;;13.29;49.21;100812.59;4981375;28;116748;-63
2022/01/28 03:11:01;;;;;;;;;;;;;;;13.30;49.07;100818.81;4980950;28;98188;-57
2022/01/28 03:14:14;;;;;;;;;;;;;;;13.30;48.99;100816.91;4981652;28;97956;-57
2022/01/28 03:16:21;;;;;;;;;;;;;;;13.29;48.98;100826.13;4978513;27;98962;-64
2022/01/28 03:21:24;;;;;;;;;;;;;;;13.30;49.24;100833.16;4979514;27;98144;-56
2022/01/28 03:23:51;;;;;;;;;;;;;;;13.30;49.17;100846.69;4981772;28;97791;-65
2022/01/28 03:26:17;;;;;;;;;;;;;;;13.31;49.18;100842.88;4981092;27;98652;-64
2022/01/28 03:28:43;;;;;;;;;;;;;;;13.32;49.18;100843.69;4981150;28;98452;-63
2022/01/28 03:31:09;;;;;;;;;;;;;;;13.31;49.02;100852.91;4979783;27;99622;-56
2022/01/28 03:33:35;;;;;;;;;;;;;;;13.31;49.07;100852.91;4980825;27;98209;-63
2022/01/28 03:36:04;;;;;;;;;;;;;;;13.33;49.11;100856.16;4980411;28;115686;-64
2022/01/28 03:38:30;;;;;;;;;;;;;;;13.33;49.02;100861.56;4981719;27;98230;-63
2022/01/28 03:40:56;;;;;;;;;;;;;;;13.31;49.28;100867.25;4980045;27;100503;-56
2022/01/28 03:43:23;;;;;;;;;;;;;;;13.32;49.26;100863.44;4979627;28;98032;-56
2022/01/28 03:45:48;;;;;;;;;;;;;;;13.32;49.19;100868.88;4979604;28;111529;-56
2022/01/28 03:48:15;;;;;;;;;;;;;;;13.30;49.26;100867.53;4980195;28;127809;-57
2022/01/28 03:50:40;;;;;;;;;;;;;;;13.30;49.27;100883.78;4980784;27;97966;-64
2022/01/28 03:53:07;;;;;;;;;;;;;;;13.31;48.99;100879.97;4979434;27;116358;-63
2022/01/28 03:55:33;;;;;;;;;;;;;;;13.30;49.21;100883.78;4980128;27;98458;-63
2022/01/28 03:57:59;;;;;;;;;;;;;;;13.31;49.20;100885.41;4980385;28;118345;-57
2022/01/28 04:00:28;;;;;;;;;;;;;;;13.29;49.22;100891.09;4978477;27;127385;-56
2022/01/28 04:03:11;;;;;;;;;;;;;;;13.28;49.12;100881.34;4981224;27;97871;-57
2022/01/28 04:13:32;;;;;;;;;;;;;;;13.26;49.14;100902.47;4977203;28;98194;-63
2022/01/28 04:18:24;;;;;;;;;;;;;;;13.27;48.91;100920.31;4975804;28;115762;-60
2022/01/28 04:20:50;;;;;;;;;;;;;;;13.26;49.17;100916.00;4979068;27;118926;-56
2022/01/28 04:23:16;;;;;;;;;;;;;;;13.27;49.24;100914.91;4979887;28;116633;-56
2022/01/28 04:25:42;;;;;;;;;;;;;;;13.26;48.97;100924.13;4978646;28;126923;-56
2022/01/28 04:28:08;;;;;;;;;;;;;;;13.27;49.21;100939.28;4980224;28;98328;-63
2022/01/28 04:30:34;;;;;;;;;;;;;;;13.26;49.13;100962.03;4977831;28;126660;-64
2022/01/28 04:33:00;;;;;;;;;;;;;;;13.26;49.04;100951.19;4977594;28;117514;-56
2022/01/28 04:35:26;;;;;;;;;;;;;;;13.26;49.38;100962.84;4979249;27;113652;-63
2022/01/28 04:40:34;;;;;;;;;;;;;;;13.26;49.07;100951.19;4978611;27;98672;-55
2022/01/28 04:43:11;;;;;;;;;;;;;;;13.25;49.25;100955.00;4980651;28;98108;-56
2022/01/28 05:07:21;;;;;;;;;;;;;;;13.21;49.46;100979.06;4967606;28;98444;-63
2022/01/28 05:15:20;;;;;;;;;;;;;;;13.22;49.50;100986.09;4981233;28;98132;-57
2022/01/28 05:26:12;;;;;;;;;;;;;;;13.22;49.55;100994.22;4981981;27;97860;-56
2022/01/28 05:28:36;;;;;;;;;;;;;;;13.22;49.42;100993.41;4982779;27;99728;-56
2022/01/28 05:31:02;;;;;;;;;;;;;;;13.23;49.43;100995.03;4982335;27;98195;-64
2022/01/28 05:33:28;;;;;;;;;;;;;;;13.22;49.41;101002.34;4981974;28;128171;-63
2022/01/28 05:35:54;;;;;;;;;;;;;;;13.23;49.52;100989.63;4982467;27;98405;-63
2022/01/28 05:38:20;;;;;;;;;;;;;;;13.22;49.32;101002.34;4979711;28;127972;-63
2022/01/28 05:40:46;;;;;;;;;;;;;;;13.23;49.56;100997.75;4979625;28;112890;-64
2022/01/28 05:43:12;;;;;;;;;;;;;;;13.22;49.47;101013.16;4978555;28;127987;-63
2022/01/28 05:45:38;;;;;;;;;;;;;;;13.21;49.50;101011.53;4978155;27;117788;-63
2022/01/28 05:48:04;;;;;;;;;;;;;;;13.22;49.57;101020.47;4977264;28;127654;-63
2022/01/28 05:50:30;;;;;;;;;;;;;;;13.22;49.28;101015.06;4975474;27;98418;-63
2022/01/28 05:52:56;;;;;;;;;;;;;;;13.23;49.46;101024.81;4976713;28;128406;-63
2022/01/28 05:55:22;;;;;;;;;;;;;;;13.23;49.38;101016.69;4977479;27;115083;-64
2022/01/28 05:57:47;;;;;;;;;;;;;;;13.23;49.23;101041.88;4978425;28;101268;-63
2022/01/28 06:00:14;;;;;;;;;;;;;;;13.23;49.42;101032.94;4977979;27;98424;-63
2022/01/28 06:02:40;;;;;;;;;;;;;;;13.23;49.41;101038.38;4976560;27;97971;-63
2022/01/28 06:05:07;;;;;;;;;;;;;;;13.23;49.12;101047.28;4975682;27;117109;-63
2022/01/28 06:07:33;;;;;;;;;;;;;;;13.23;49.30;101049.19;4972328;28;98141;-63
2022/01/28 06:09:58;;;;;;;;;;;;;;;13.24;48.78;101053.50;4976107;27;101882;-63
2022/01/28 06:12:24;;;;;;;;;;;;;;;13.24;49.24;101056.22;4977384;28;127766;-63
2022/01/28 06:14:50;;;;;;;;;;;;;;;13.23;49.12;101068.94;4976334;27;116941;-63
2022/01/28 06:17:16;;;;;;;;;;;;;;;13.25;49.23;101068.69;4979303;28;126492;-63
2022/01/28 06:19:42;;;;;;;;;;;;;;;13.24;48.99;101064.34;4981342;27;98185;-63
2022/01/28 06:22:08;;;;;;;;;;;;;;;13.26;49.10;101086.56;4981337;28;99319;-63
2022/01/28 06:24:34;;;;;;;;;;;;;;;13.26;48.82;101092.78;4981777;27;98239;-63
2022/01/28 06:27:00;;;;;;;;;;;;;;;13.26;48.93;101098.19;4980896;27;128918;-63
2022/01/28 06:29:26;;;;;;;;;;;;;;;13.27;48.97;101096.28;4980563;28;127816;-63
2022/01/28 06:31:52;;;;;;;;;;;;;;;13.27;48.90;101097.09;4981289;28;118834;-64
2022/01/28 06:34:18;;;;;;;;;;;;;;;13.27;48.91;101102.53;4980699;28;117408;-64
2022/01/28 06:36:44;;;;;;;;;;;;;;;13.27;49.09;101099.81;4980731;28;121094;-64
2022/01/28 06:39:10;;;;;;;;;;;;;;;13.27;48.99;101102.53;4982569;28;98660;-64
2022/01/28 06:41:35;;;;;;;;;;;;;;;13.27;48.98;101096.28;4980836;28;99859;-64
2022/01/28 06:44:01;;;;;;;;;;;;;;;13.27;49.09;101113.34;4980731;27;118690;-64
2022/01/28 06:46:27;;;;;;;;;;;;;;;13.27;48.92;101118.75;4980626;27;98214;-63
2022/01/28 06:48:53;;;;;;;;;;;;;;;13.27;49.07;101121.47;4980283;28;128268;-64
2022/01/28 06:51:19;;;;;;;;;;;;;;;13.28;49.07;101116.88;4980581;27;127425;-56
2022/01/28 06:53:45;;;;;;;;;;;;;;;13.28;49.01;101127.69;4981431;28;98134;-56
2022/01/28 06:56:11;;;;;;;;;;;;;;;13.28;49.10;101127.69;4980962;28;128086;-63
2022/01/28 06:58:37;;;;;;;;;;;;;;;13.29;48.96;101139.38;4980883;28;127340;-56
2022/01/28 07:01:03;;;;;;;;;;;;;;;13.29;48.72;101144.78;4981559;27;98378;-63
2022/01/28 07:03:29;;;;;;;;;;;;;;;13.29;48.92;101142.88;4981684;27;98082;-56
2022/01/28 07:05:55;;;;;;;;;;;;;;;13.29;49.05;101150.19;4979130;28;128903;-63
2022/01/28 07:08:23;;;;;;;;;;;;;;;13.29;48.99;101153.72;4981501;27;107737;-63
2022/01/28 07:10:49;;;;;;;;;;;;;;;13.30;48.65;101146.41;4980864;27;98372;-56
2022/01/28 07:13:15;;;;;;;;;;;;;;;13.31;48.98;101162.34;4979976;27;117330;-55
2022/01/28 07:15:40;;;;;;;;;;;;;;;13.32;48.96;101161.28;4976878;27;128865;-63
2022/01/28 07:18:06;;;;;;;;;;;;;;;13.33;48.83;101159.41;4980633;28;98322;-57
2022/01/28 07:20:36;;;;;;;;;;;;;;;13.33;48.89;101173.75;4980810;27;98267;-63
2022/01/28 07:23:02;;;;;;;;;;;;;;;13.34;48.95;101175.38;4981042;27;98197;-63
2022/01/28 07:25:28;;;;;;;;;;;;;;;13.35;48.76;101185.09;5012437;27;100205;-63
2022/01/28 07:27:54;;;;;;;;;;;;;;;13.35;48.92;101185.09;4980385;27;98116;-56
2022/01/28 07:30:20;;;;;;;;;;;;;;;13.36;48.97;101177.78;4978283;27;125192;-63
2022/01/28 07:32:49;;;;;;;;;;;;;;;13.38;48.66;101187.28;4980952;28;100716;-63
2022/01/28 07:35:15;;;;;;;;;;;;;;;13.39;48.69;101188.09;4980344;27;98330;-56
2022/01/28 07:37:41;;;;;;;;;;;;;;;13.41;48.58;101194.88;4980561;28;113883;-56
2022/01/28 07:40:07;;;;;;;;;;;;;;;13.42;48.81;101209.22;4980599;27;111727;-56
2022/01/28 07:42:35;;;;;;;;;;;;;;;13.42;48.76;101217.34;4979914;27;107378;-63
2022/01/28 07:45:02;;;;;;;;;;;;;;;13.44;48.70;101226.84;4980289;27;99313;-63
2022/01/28 07:47:28;;;;;;;;;;;;;;;13.44;48.62;101218.72;4980249;27;99670;-63
2022/01/28 07:49:54;;;;;;;;;;;;;;;13.48;48.67;101232.53;4980526;27;97908;-63
2022/01/28 07:52:20;;;;;;;;;;;;;;;13.49;48.76;101236.88;4980666;28;97720;-63
2022/01/28 07:54:49;;;;;;;;;;;;;;;13.50;48.72;101254.75;4979527;28;98396;-63
2022/01/28 07:57:15;;;;;;;;;;;;;;;13.50;48.57;101252.84;4980349;27;98274;-63
2022/01/28 07:59:41;;;;;;;;;;;;;;;13.51;48.87;101259.88;4981099;27;99812;-63
2022/01/28 08:02:07;;;;;;;;;;;;;;;13.51;48.88;101253.66;4980021;28;117146;-63
2022/01/28 08:04:33;;;;;;;;;;;;;;;13.51;48.84;101259.88;4980072;27;99300;-63
2022/01/28 08:06:59;;;;;;;;;;;;;;;13.51;48.86;101262.59;4979915;27;98453;-63
2022/01/28 08:09:25;;;;;;;;;;;;;;;13.53;48.94;101269.66;4979724;27;122947;-64
2022/01/28 08:11:51;;;;;;;;;;;;;;;13.54;48.55;101269.38;4980188;27;105337;-63
2022/01/28 08:14:17;;;;;;;;;;;;;;;13.55;49.02;101272.88;4979229;28;128674;-64
2022/01/28 08:16:43;;;;;;;;;;;;;;;13.56;48.64;101272.63;4978732;27;127183;-63
2022/01/28 08:19:09;;;;;;;;;;;;;;;13.56;48.63;101271.81;4979649;28;127292;-63
2022/01/28 08:21:35;;;;;;;;;;;;;;;13.58;48.69;101284.00;4980405;28;97903;-63
2022/01/28 08:24:00;;;;;;;;;;;;;;;13.60;48.91;101286.47;4979726;28;109129;-63
2022/01/28 08:26:26;;;;;;;;;;;;;;;13.64;48.90;101301.09;4979966;28;127035;-63
2022/01/28 08:28:52;;;;;;;;;;;;;;;13.66;48.67;101302.44;4982712;28;99255;-63
2022/01/28 08:31:18;;;;;;;;;;;;;;;13.68;48.68;101311.13;4983149;27;97994;-64
2022/01/28 08:33:44;;;;;;;;;;;;;;;13.71;48.82;101299.75;4982877;28;98409;-63
2022/01/28 08:36:11;;;;;;;;;;;;;;;13.75;48.69;101300.00;4980857;27;97910;-63
2022/01/28 08:38:44;;;;;;;;;;;;;;;13.77;49.01;101311.41;4983257;27;97860;-63
2022/01/28 08:41:12;;;;;;;;;;;;;;;13.79;48.70;101325.50;4983332;27;98011;-63
2022/01/28 08:43:41;;;;;;;;;;;;;;;13.80;49.03;101326.34;4982179;28;99335;-63
2022/01/28 08:46:07;;;;;;;;;;;;;;;13.79;48.84;101333.63;4982720;27;112105;-63
2022/01/28 08:48:33;;;;;;;;;;;;;;;13.78;48.96;101332.00;4983471;28;100807;-63
2022/01/28 08:50:59;;;;;;;;;;;;;;;13.79;48.90;101343.66;4982166;27;103668;-63
2022/01/28 08:53:25;;;;;;;;;;;;;;;13.78;49.16;101352.88;4979846;28;128281;-63
2022/01/28 08:55:50;;;;;;;;;;;;;;;13.75;49.18;101356.91;4982837;28;98846;-63
2022/01/28 08:58:16;;;;;;;;;;;;;;;13.78;49.23;101358.28;4982218;28;127750;-63
2022/01/28 09:00:46;;;;;;;;;;;;;;;13.81;49.27;101371.31;4982447;27;115250;-63
2022/01/28 09:03:14;;;;;;;;;;;;;;;13.81;49.36;101372.13;4982548;27;98931;-63
2022/01/28 09:05:40;;;;;;;;;;;;;;;13.84;49.12;101378.91;4982401;27;121256;-63
2022/01/28 09:08:08;;;;;;;;;;;;;;;13.87;49.06;101384.63;4982328;27;97763;-63
2022/01/28 09:10:36;;;;;;;;;;;;;;;13.90;49.06;101392.19;4981073;28;97940;-63
2022/01/28 09:15:32;;;;;;;;;;;;;;;13.91;49.11;101395.72;4982970;27;98167;-63
2022/01/28 09:17:58;;;;;;;;;;;;;;;13.94;49.28;101406.84;4982389;28;97863;-63
2022/01/28 09:20:24;;;;;;;;;;;;;;;13.94;49.08;101398.69;4981704;27;97880;-63
2022/01/28 09:22:50;;;;;;;;;;;;;;;13.95;49.49;101416.63;4981515;28;128199;-63
2022/01/28 09:25:16;;;;;;;;;;;;;;;13.98;49.02;101409.81;4982014;27;104298;-63
2022/01/28 09:27:42;;;;;;;;;;;;;;;13.99;49.38;101420.41;4981258;28;127840;-63
2022/01/28 09:30:09;;;;;;;;;;;;;;;14.03;49.05;101415.28;4981316;27;104287;-63
2022/01/28 09:32:34;;;;;;;;;;;;;;;14.05;49.40;101415.00;4981462;27;103928;-63
2022/01/28 09:35:02;;;;;;;;;;;;;;;14.07;49.36;101424.50;4980814;27;128995;-62
2022/01/28 09:37:28;;;;;;;;;;;;;;;14.09;49.39;101418.81;4981378;27;97967;-63
2022/01/28 09:39:56;;;;;;;;;;;;;;;14.12;49.30;101434.53;4980028;27;97830;-63
2022/01/28 09:42:27;;;;;;;;;;;;;;;14.13;49.36;101436.16;4981872;27;98387;-63
2022/01/28 09:44:53;;;;;;;;;;;;;;;14.16;49.05;101438.34;4979918;27;98680;-63
2022/01/28 09:47:19;;;;;;;;;;;;;;;14.16;49.37;101443.78;4980032;28;114986;-63
2022/01/28 09:49:45;;;;;;;;;;;;;;;14.16;49.10;101452.72;4979830;27;116178;-63
2022/01/28 09:52:11;;;;;;;;;;;;;;;14.18;49.20;101450.53;4979633;28;98991;-64
2022/01/28 09:54:37;;;;;;;;;;;;;;;14.19;49.22;101454.91;4982845;27;98150;-63
2022/01/28 09:57:04;;;;;;;;;;;;;;;14.21;49.06;101451.91;4980184;27;105530;-63
2022/01/28 09:59:30;;;;;;;;;;;;;;;14.23;49.31;101458.72;4983459;27;98429;-55
2022/01/28 10:01:56;;;;;;;;;;;;;;;14.26;49.27;101460.03;4981708;27;117141;-56
2022/01/28 10:04:25;;;;;;;;;;;;;;;14.30;48.92;101460.31;4978803;28;127757;-63
2022/01/28 10:06:51;;;;;;;;;;;;;;;14.35;49.23;101460.34;4981568;28;97917;-63
2022/01/28 10:09:18;;;;;;;;;;;;;;;14.40;48.86;101465.78;4983442;28;98639;-56
2022/01/28 10:11:47;;;;;;;;;;;;;;;14.45;49.04;101463.06;4980825;27;98775;-63
2022/01/28 10:14:20;;;;;;;;;;;;;;;14.48;48.80;101471.50;4981826;27;98732;-57
2022/01/28 10:16:59;;;;;;;;;;;;;;;14.53;48.91;101478.84;4982193;27;97871;-55
2022/01/28 10:19:45;;;;;;;;;;;;;;;14.60;49.10;101476.69;4982120;27;97962;-63
2022/01/28 10:22:18;;;;;;;;;;;;;;;14.72;49.05;101481.84;4980248;27;127479;-56
2022/01/28 10:24:44;;;;;;;;;;;;;;;14.75;49.09;101492.19;4981736;27;98607;-64
2022/01/28 10:27:10;;;;;;;;;;;;;;;14.81;49.09;101484.84;4981014;28;126503;-55
2022/01/28 10:29:40;;;;;;;;;;;;;;;14.85;49.06;101508.44;4980490;27;115588;-56
2022/01/28 10:32:16;;;;;;;;;;;;;;;14.88;48.60;101497.06;4979916;27;103670;-56
2022/01/28 10:34:49;;;;;;;;;;;;;;;14.92;48.74;101506.28;4981402;27;98735;-55
2022/01/28 10:37:23;;;;;;;;;;;;;;;14.93;49.06;101513.38;4980483;27;98779;-56
2022/01/28 10:40:22;;;;;;;;;;;;;;;14.95;48.90;101510.38;4979263;28;98189;-57
2022/01/28 10:42:50;;;;;;;;;;;;;;;15.03;48.82;101517.97;4971468;27;98390;-56
2022/01/28 10:45:19;;;;;;;;;;;;;;;15.02;48.90;101519.06;4981090;27;99029;-56
2022/01/28 10:47:54;;;;;;;;;;;;;;;15.06;49.12;101512.00;4980555;27;99421;-55
2022/01/28 10:50:27;;;;;;;;;;;;;;;15.06;48.81;101524.78;4981087;27;98015;-56
2022/01/28 10:53:11;;;;;;;;;;;;;;;15.10;48.89;101525.84;4983487;27;99083;-56
2022/01/28 10:55:41;;;;;;;;;;;;;;;15.14;48.97;101529.66;4980491;28;99304;-56
2022/01/28 10:58:12;;;;;;;;;;;;;;;15.19;48.70;101533.16;4980846;28;98535;-56
2022/01/28 11:00:39;;;;;;;;;;;;;;;15.20;49.09;101532.06;4980611;27;98104;-56
2022/01/28 11:03:08;;;;;;;;;;;;;;;15.19;49.01;101530.44;4981053;28;112346;-56
2022/01/28 11:05:35;;;;;;;;;;;;;;;15.17;49.08;101526.41;4979837;27;97972;-56
2022/01/28 11:08:02;;;;;;;;;;;;;;;15.16;48.88;101532.91;4980664;27;98550;-57
2022/01/28 11:10:28;;;;;;;;;;;;;;;15.15;49.21;101545.66;4980047;27;103239;-56
2022/01/28 11:12:54;;;;;;;;;;;;;;;15.13;49.14;101541.56;4979109;28;128989;-56
2022/01/28 11:15:20;;;;;;;;;;;;;;;15.14;48.82;101537.81;4978293;27;122799;-56
2022/01/28 11:17:51;;;;;;;;;;;;;;;15.20;48.93;101542.13;4979952;27;97795;-56
2022/01/28 11:20:21;;;;;;;;;;;;;;;15.27;48.96;101544.56;4978578;28;105067;-56
2022/01/28 11:22:58;;;;;;;;;;;;;;;15.23;48.72;101545.13;4980539;28;98589;-57
2022/01/28 11:25:42;;;;;;;;;;;;;;;15.32;48.93;101550.81;4980278;27;98440;-56
2022/01/28 11:28:12;;;;;;;;;;;;;;;15.39;48.93;101545.09;4961451;28;97851;-56
2022/01/28 11:30:49;;;;;;;;;;;;;;;15.47;48.36;101550.78;4981599;27;97874;-56
2022/01/28 11:33:16;;;;;;;;;;;;;;;15.52;48.79;101558.13;4980662;27;98894;-63
2022/01/28 11:35:49;;;;;;;;;;;;;;;15.60;48.46;101562.19;4980572;27;99060;-63
2022/01/28 11:38:33;;;;;;;;;;;;;;;15.67;48.81;101554.59;4979677;27;98207;-56
2022/01/28 11:41:13;;;;;;;;;;;;;;;15.70;48.38;101554.88;4980405;27;106775;-56
2022/01/28 11:43:49;;;;;;;;;;;;;;;15.76;48.37;101554.84;4980218;28;98392;-64
2022/01/28 11:46:37;;;;;;;;;;;;;;;15.81;48.48;101557.56;4980112;28;99241;-56
2022/01/28 11:49:06;;;;;;;;;;;;;;;15.94;48.50;101544.19;4981167;28;98388;-56
2022/01/28 11:51:40;;;;;;;;;;;;;;;15.96;48.49;101541.22;4979718;27;98141;-63
2022/01/28 11:54:10;;;;;;;;;;;;;;;15.93;48.25;101549.91;4978089;28;98787;-63
2022/01/28 11:56:55;;;;;;;;;;;;;;;15.97;48.25;101545.56;4975248;28;110377;-63
2022/01/28 11:59:25;;;;;;;;;;;;;;;16.07;48.46;101555.56;4977094;28;98226;-64
2022/01/28 12:01:54;;;;;;;;;;;;;;;16.15;48.30;101555.81;4974013;27;103146;-63
2022/01/28 12:04:27;;;;;;;;;;;;;;;16.32;48.15;101570.97;4976306;28;99544;-56
2022/01/28 12:07:00;;;;;;;;;;;;;;;16.41;48.08;101572.84;4976674;27;98289;-55
2022/01/28 12:09:27;;;;;;;;;;;;;;;16.40;48.19;101568.50;4978130;27;101181;-56
2022/01/28 12:11:53;;;;;;;;;;;;;;;16.42;48.13;101582.63;4976460;27;98152;-63
2022/01/28 12:14:19;;;;;;;;;;;;;;;16.43;48.39;101578.00;4977269;28;99192;-56
2022/01/28 12:16:46;;;;;;;;;;;;;;;16.55;48.06;101567.59;4974669;28;98362;-56
2022/01/28 12:19:17;;;;;;;;;;;;;;;16.47;48.27;101581.81;4976900;28;97785;-56
2022/01/28 12:22:03;;;;;;;;;;;;;;;16.51;48.49;101584.78;4976856;27;97931;-56
2022/01/28 12:24:33;;;;;;;;;;;;;;;16.55;48.21;101586.66;4976220;27;99511;-56
2022/01/28 12:27:06;;;;;;;;;;;;;;;16.64;48.17;101590.41;4976398;27;99520;-57
2022/01/28 12:29:44;;;;;;;;;;;;;;;16.69;48.23;101584.91;4975726;27;98635;-63
2022/01/28 12:32:12;;;;;;;;;;;;;;;16.81;48.21;101575.63;4976645;27;98005;-56
2022/01/28 12:34:45;;;;;;;;;;;;;;;16.84;47.99;101584.06;4977505;27;100279;-63
2022/01/28 12:37:11;;;;;;;;;;;;;;;16.87;48.06;101590.84;4971862;27;119928;-64
2022/01/28 12:40:24;;;;;;;;;;;;;;;16.81;48.33;101589.25;4978379;27;97950;-56
2022/01/28 12:42:32;;;;;;;;;;;;;;;16.74;48.53;101584.13;4975123;27;97984;-63
2022/01/28 12:44:59;;;;;;;;;;;;;;;16.81;48.55;101590.06;4975613;28;99311;-63
2022/01/28 12:47:25;;;;;;;;;;;;;;;16.80;48.58;101593.88;4975966;27;113074;-63
2022/01/28 12:50:03;;;;;;;;;;;;;;;16.75;48.66;101588.47;4975860;28;98161;-62
2022/01/28 12:52:35;;;;;;;;;;;;;;;16.84;48.53;101596.84;4971673;27;98176;-63
2022/01/28 12:55:01;;;;;;;;;;;;;;;16.84;48.59;101605.03;4972795;28;126046;-63
2022/01/28 12:57:27;;;;;;;;;;;;;;;16.73;48.83;101606.16;4964436;28;112234;-63
2022/01/28 12:59:53;;;;;;;;;;;;;;;16.59;48.96;101609.50;4973671;28;128622;-64
2022/01/28 13:02:19;;;;;;;;;;;;;;;16.47;49.16;101616.38;4974372;28;117653;-63
2022/01/28 13:10:20;;;;;;;;;;;;;;;16.18;49.55;101633.31;4975064;27;97832;-63
2022/01/28 13:12:46;;;;;;;;;;;;;;;16.09;49.56;101629.53;4972782;27;97878;-63
2022/01/28 13:15:13;;;;;;;;;;;;;;;16.02;49.60;101629.00;4984209;27;120365;-63
2022/01/28 13:17:50;;;;;;;;;;;;;;;15.95;49.49;101635.56;4978883;27;99663;-63
2022/01/28 13:20:16;;;;;;;;;;;;;;;15.87;49.40;101641.53;4971698;27;111167;-63
2022/01/28 13:22:47;;;;;;;;;;;;;;;15.81;49.47;101644.56;4976941;28;118876;-63
2022/01/28 13:25:22;;;;;;;;;;;;;;;15.77;49.55;101641.56;4960603;28;101904;-64
2022/01/28 13:27:52;;;;;;;;;;;;;;;15.76;49.56;101658.97;4979868;27;99030;-63
2022/01/28 13:30:19;;;;;;;;;;;;;;;15.76;49.58;101658.13;4976275;28;98122;-64
2022/01/28 13:32:47;;;;;;;;;;;;;;;15.73;49.31;101670.38;4979511;28;98205;-64
2022/01/28 13:35:15;;;;;;;;;;;;;;;15.72;49.37;101671.50;4978326;27;98673;-63
2022/01/28 13:37:47;;;;;;;;;;;;;;;15.69;49.28;101669.31;4971560;28;98370;-62
2022/01/28 13:40:19;;;;;;;;;;;;;;;15.66;49.32;101672.56;4978420;27;98829;-62
2022/01/28 13:43:08;;;;;;;;;;;;;;;15.65;49.13;101677.19;4979170;28;98070;-63
2022/01/28 13:45:37;;;;;;;;;;;;;;;15.66;49.05;101686.97;4979080;27;98360;-63
2022/01/28 13:48:15;;;;;;;;;;;;;;;15.63;49.14;101684.75;4978517;27;99003;-63
2022/01/28 13:50:42;;;;;;;;;;;;;;;15.60;48.90;101684.47;4978508;27;98489;-63
2022/01/28 13:56:02;;;;;;;;;;;;;;;15.61;49.00;101683.41;4978702;27;98445;-63
2022/01/28 13:58:28;;;;;;;;;;;;;;;15.63;48.86;101679.31;4978526;27;98815;-63
2022/01/28 14:00:56;;;;;;;;;;;;;;;15.63;48.93;101682.03;4978227;28;116742;-63
2022/01/28 14:03:26;;;;;;;;;;;;;;;15.66;49.06;101689.69;4979237;27;97989;-63
2022/01/28 14:05:53;;;;;;;;;;;;;;;15.69;48.74;101691.88;4978817;27;98627;-63
2022/01/28 14:08:42;;;;;;;;;;;;;;;15.72;48.80;101693.22;4978166;27;98075;-63
2022/01/28 14:11:33;;;;;;;;;;;;;;;15.74;48.48;101701.09;4977533;27;98323;-63
2022/01/28 14:14:05;;;;;;;;;;;;;;;15.71;48.82;101699.72;4978836;28;97771;-63
2022/01/28 14:16:31;;;;;;;;;;;;;;;15.68;48.60;101703.00;4978491;27;98615;-63
2022/01/28 14:18:57;;;;;;;;;;;;;;;15.69;48.67;101704.63;4975398;28;128160;-63
2022/01/28 14:21:22;;;;;;;;;;;;;;;15.69;48.71;101707.34;4977242;27;128055;-63
2022/01/28 14:23:49;;;;;;;;;;;;;;;15.65;48.68;101712.53;4977409;27;116961;-62
2022/01/28 14:26:16;;;;;;;;;;;;;;;15.61;48.77;101708.69;4977588;27;113048;-63